createdAt,value
2022-08-07T19:09:59.409Z,24.27
2022-08-07T19:13:10.235Z,24.35
2022-08-07T19:16:05.203Z,24.69
2022-08-07T19:19:07.793Z,24.94
2022-08-07T19:22:04.449Z,24.94
2022-08-07T19:24:46.200Z,25.09
2022-08-07T19:28:29.288Z,25.15
2022-08-07T19:31:00.404Z,25.14
2022-08-07T19:33:10.226Z,25.16
2022-08-07T19:35:42.307Z,25.23
2022-08-07T19:38:16.132Z,25.19
2022-08-07T19:40:50.658Z,25.14
2022-08-07T19:43:46.085Z,25.17
2022-08-07T19:46:16.094Z,25.09
2022-08-07T19:48:53.800Z,25.03
2022-08-07T19:51:51.202Z,24.94
2022-08-07T19:54:30.946Z,25.00
2022-08-07T19:58:00.479Z,25.01
2022-08-07T19:59:54.730Z,24.90
2022-08-07T20:02:39.193Z,24.58
2022-08-07T20:05:08.902Z,24.59
2022-08-07T20:07:46.182Z,24.51
2022-08-07T20:10:37.815Z,24.53
2022-08-07T20:13:26.915Z,24.57
2022-08-07T20:16:00.447Z,24.44
2022-08-07T20:18:33.522Z,24.53
2022-08-07T20:21:03.859Z,24.50
2022-08-07T20:23:54.050Z,24.41
2022-08-07T20:26:32.513Z,24.39
2022-08-07T20:29:46.589Z,24.43
2022-08-07T20:31:59.660Z,24.38
2022-08-07T20:34:49.543Z,24.43
2022-08-07T20:37:21.706Z,24.41
2022-08-07T20:40:03.185Z,24.44
2022-08-07T20:42:38.050Z,24.32
2022-08-07T20:45:32.889Z,24.35
2022-08-07T20:47:58.264Z,24.19
2022-08-07T20:50:28.777Z,24.18
2022-08-07T20:52:57.000Z,24.19
2022-08-07T20:55:28.168Z,24.14
2022-08-07T20:58:04.123Z,24.20
2022-08-07T21:00:47.141Z,24.12
2022-08-07T21:03:18.915Z,24.09
2022-08-07T21:06:00.611Z,24.04
2022-08-07T21:08:38.313Z,23.92
2022-08-07T21:11:14.416Z,23.86
2022-08-07T21:14:16.631Z,23.91
2022-08-07T21:16:57.008Z,23.87
2022-08-07T21:19:51.616Z,23.91
2022-08-07T21:22:28.876Z,23.90
2022-08-07T21:25:17.907Z,23.89
2022-08-07T21:28:16.743Z,23.69
2022-08-07T21:30:56.605Z,23.57
2022-08-07T21:33:41.362Z,23.48
2022-08-07T21:36:31.621Z,23.42
2022-08-07T21:39:46.970Z,23.30
2022-08-07T21:42:42.339Z,23.24
2022-08-07T21:46:05.243Z,23.33
2022-08-07T21:48:29.277Z,23.26
2022-08-07T21:51:20.306Z,23.32
2022-08-07T21:53:54.149Z,23.38
2022-08-07T21:56:35.743Z,23.32
2022-08-07T21:59:21.906Z,23.23
2022-08-07T22:02:11.478Z,23.19
2022-08-07T22:04:53.851Z,23.17
2022-08-07T22:07:31.878Z,23.24
2022-08-07T22:10:24.680Z,23.10
2022-08-07T22:13:01.133Z,23.07
2022-08-07T22:16:44.088Z,23.02
2022-08-07T22:18:40.923Z,23.02
2022-08-07T22:21:26.154Z,23.00
2022-08-07T22:24:17.606Z,23.05
2022-08-07T22:26:56.613Z,22.98
2022-08-07T22:29:38.168Z,22.97
2022-08-07T22:32:20.443Z,22.89
2022-08-07T22:34:59.599Z,22.77
2022-08-07T22:38:01.780Z,22.81
2022-08-07T22:40:59.756Z,22.97
2022-08-07T22:43:43.538Z,22.93
2022-08-07T22:47:06.501Z,22.85
2022-08-07T22:50:00.476Z,22.95
2022-08-07T22:52:56.818Z,22.93
2022-08-07T22:55:34.030Z,22.73
2022-08-07T22:58:12.439Z,22.70
2022-08-07T23:01:15.378Z,22.68
2022-08-07T23:04:06.403Z,22.70
2022-08-07T23:07:04.405Z,22.66
2022-08-07T23:10:37.677Z,22.71
2022-08-07T23:13:18.769Z,22.67
2022-08-07T23:16:44.810Z,22.79
2022-08-07T23:20:17.646Z,22.82
2022-08-07T23:23:05.153Z,22.78
2022-08-07T23:25:56.465Z,22.79
2022-08-07T23:28:53.315Z,22.75
2022-08-07T23:34:23.455Z,22.55
2022-08-07T23:34:55.830Z,22.43
2022-08-07T23:38:01.111Z,22.46
2022-08-07T23:40:42.941Z,22.46
2022-08-07T23:43:37.621Z,22.25
2022-08-07T23:46:36.544Z,22.30
2022-08-07T23:49:52.768Z,22.34
2022-08-07T23:52:58.607Z,22.46
2022-08-07T23:55:52.071Z,22.52
2022-08-07T23:58:43.550Z,22.28
